createdAt,value
2022-09-26T00:01:16.024Z,0.60
2022-09-26T00:03:46.984Z,0.50
2022-09-26T00:06:16.136Z,0.70
2022-09-26T00:08:43.426Z,0.60
2022-09-26T00:11:12.019Z,0.35
2022-09-26T00:13:40.305Z,0.40
2022-09-26T00:16:07.904Z,0.35
2022-09-26T00:18:35.166Z,0.40
2022-09-26T00:21:06.492Z,0.50
2022-09-26T00:23:33.806Z,0.50
2022-09-26T00:26:01.110Z,0.50
2022-09-26T00:28:28.767Z,0.50
2022-09-26T00:30:56.748Z,0.30
2022-09-26T00:33:24.622Z,0.50
2022-09-26T00:35:52.747Z,0.38
2022-09-26T00:38:20.011Z,0.50
2022-09-26T00:40:47.628Z,0.60
2022-09-26T00:43:30.374Z,0.50
2022-09-26T00:46:00.683Z,0.55
2022-09-26T00:48:28.418Z,0.80
2022-09-26T00:50:55.718Z,0.40
2022-09-26T00:53:26.486Z,0.35
2022-09-26T00:55:55.902Z,0.30
2022-09-26T00:58:25.477Z,0.50
2022-09-26T01:00:52.831Z,0.45
2022-09-26T01:03:21.205Z,0.40
2022-09-26T01:05:48.625Z,0.38
2022-09-26T01:08:17.348Z,0.30
2022-09-26T01:10:46.092Z,0.45
2022-09-26T01:13:13.555Z,0.52
2022-09-26T01:15:40.821Z,0.57
2022-09-26T01:18:08.098Z,0.60
2022-09-26T01:20:35.333Z,0.45
2022-09-26T01:23:05.963Z,0.60
2022-09-26T01:25:33.188Z,0.50
2022-09-26T01:28:19.322Z,0.30
2022-09-26T01:30:49.628Z,0.68
2022-09-26T01:33:32.267Z,0.60
2022-09-26T01:36:08.697Z,0.55
2022-09-26T01:38:42.157Z,0.70
2022-09-26T01:41:28.228Z,0.50
2022-09-26T01:43:55.796Z,0.63
2022-09-26T01:46:29.293Z,0.70
2022-09-26T01:48:58.938Z,0.60
2022-09-26T01:51:33.450Z,0.45
2022-09-26T01:54:10.086Z,1.45
2022-09-26T01:56:39.541Z,0.50
2022-09-26T01:59:28.045Z,0.50
2022-09-26T02:01:58.512Z,1.58
2022-09-26T02:04:31.789Z,0.63
2022-09-26T02:07:12.408Z,0.50
2022-09-26T02:09:41.323Z,0.60
2022-09-26T02:12:10.698Z,0.60
2022-09-26T02:14:39.010Z,0.30
2022-09-26T02:17:09.157Z,0.50
2022-09-26T02:19:44.217Z,0.50
2022-09-26T02:22:11.475Z,0.50
2022-09-26T02:24:38.804Z,0.68
2022-09-26T02:27:06.842Z,0.52
2022-09-26T02:29:34.276Z,0.50
2022-09-26T02:32:15.606Z,0.60
2022-09-26T02:34:43.693Z,0.63
2022-09-26T02:37:13.444Z,0.40
2022-09-26T02:39:41.267Z,0.40
2022-09-26T02:42:23.489Z,0.60
2022-09-26T02:44:59.980Z,0.50
2022-09-26T02:47:30.352Z,0.57
2022-09-26T02:50:12.714Z,0.50
2022-09-26T02:52:53.972Z,0.40
2022-09-26T02:55:21.781Z,0.65
2022-09-26T02:57:55.192Z,0.80
2022-09-26T03:00:27.269Z,0.70
2022-09-26T03:03:03.512Z,0.50
2022-09-26T03:05:31.623Z,0.70
2022-09-26T03:08:04.801Z,0.60
2022-09-26T03:10:32.782Z,0.63
2022-09-26T03:13:09.359Z,0.57
2022-09-26T03:15:37.943Z,0.35
2022-09-26T03:18:07.481Z,0.50
2022-09-26T03:20:36.223Z,0.57
2022-09-26T03:23:04.652Z,0.70
2022-09-26T03:25:32.176Z,0.82
2022-09-26T03:28:02.222Z,0.60
2022-09-26T03:30:30.070Z,0.50
2022-09-26T03:32:57.281Z,0.70
2022-09-26T03:35:24.530Z,0.60
2022-09-26T03:37:51.754Z,0.50
2022-09-26T03:40:19.337Z,0.68
2022-09-26T03:42:48.023Z,0.70
2022-09-26T03:45:15.278Z,0.60
2022-09-26T03:47:42.476Z,1.10
2022-09-26T03:50:09.988Z,0.45
2022-09-26T03:52:37.239Z,0.60
2022-09-26T03:55:05.261Z,0.55
2022-09-26T03:57:32.515Z,0.88
2022-09-26T03:59:59.729Z,0.43
2022-09-26T04:02:27.041Z,1.05
2022-09-26T04:04:54.299Z,0.98
2022-09-26T04:07:22.804Z,0.40
2022-09-26T04:09:50.010Z,0.65
2022-09-26T04:12:17.284Z,0.60
2022-09-26T04:14:44.634Z,0.90
2022-09-26T04:17:11.892Z,0.70
2022-09-26T04:19:39.157Z,0.55
2022-09-26T04:22:08.146Z,0.60
2022-09-26T04:24:35.584Z,0.25
2022-09-26T04:27:02.787Z,0.77
2022-09-26T04:29:30.143Z,0.50
2022-09-26T04:31:57.435Z,0.35
2022-09-26T04:34:27.163Z,0.70
2022-09-26T04:36:55.120Z,0.40
2022-09-26T04:39:23.159Z,0.40
2022-09-26T04:41:50.440Z,0.47
2022-09-26T04:44:17.674Z,0.60
2022-09-26T04:46:44.934Z,0.63
2022-09-26T04:49:12.323Z,0.50
2022-09-26T04:51:39.669Z,1.48
2022-09-26T04:54:07.141Z,0.57
2022-09-26T04:56:34.429Z,0.40
2022-09-26T04:59:02.252Z,0.40
2022-09-26T05:01:29.585Z,0.80
2022-09-26T05:03:57.587Z,0.35
2022-09-26T05:06:25.121Z,0.60
2022-09-26T05:08:52.325Z,0.40
2022-09-26T05:11:21.457Z,0.52
2022-09-26T05:13:53.537Z,0.40
2022-09-26T05:16:21.662Z,0.65
2022-09-26T05:18:52.303Z,0.60
2022-09-26T05:21:19.586Z,0.68
2022-09-26T05:24:05.391Z,0.82
2022-09-26T05:26:58.826Z,0.77
2022-09-26T05:29:26.045Z,0.50
2022-09-26T05:31:54.672Z,0.93
2022-09-26T05:34:26.087Z,0.32
2022-09-26T05:36:53.809Z,0.68
2022-09-26T05:39:44.231Z,0.40
2022-09-26T05:42:11.497Z,0.40
2022-09-26T05:44:39.674Z,0.43
2022-09-26T05:47:08.578Z,0.40
2022-09-26T05:49:36.233Z,0.70
2022-09-26T05:52:04.019Z,0.40
2022-09-26T05:54:31.268Z,0.28
2022-09-26T05:56:58.561Z,0.28
2022-09-26T05:59:25.889Z,0.30
2022-09-26T06:01:53.242Z,0.17
2022-09-26T06:04:20.956Z,0.30
2022-09-26T06:06:48.837Z,0.30
2022-09-26T06:09:16.240Z,0.30
2022-09-26T06:11:43.704Z,0.38
2022-09-26T06:14:11.178Z,0.17
2022-09-26T06:16:38.480Z,0.20
2022-09-26T06:19:05.964Z,0.30
2022-09-26T06:21:34.075Z,0.22
2022-09-26T06:24:01.365Z,0.52
2022-09-26T06:26:29.010Z,0.40
2022-09-26T06:28:58.071Z,0.30
2022-09-26T06:31:26.170Z,0.20
2022-09-26T06:33:54.357Z,0.05
2022-09-26T06:36:23.072Z,0.30
2022-09-26T06:38:50.542Z,0.30
2022-09-26T06:41:17.958Z,0.63
2022-09-26T06:43:45.662Z,0.20
2022-09-26T06:46:13.632Z,0.47
2022-09-26T06:48:40.975Z,0.32
2022-09-26T06:51:09.403Z,0.40
2022-09-26T06:53:36.747Z,0.75
2022-09-26T06:56:04.791Z,0.35
2022-09-26T06:58:32.226Z,1.17
2022-09-26T07:01:00.303Z,0.47
2022-09-26T07:03:28.079Z,0.50
2022-09-26T07:05:56.509Z,0.40
2022-09-26T07:08:43.332Z,0.50
2022-09-26T07:11:32.737Z,0.68
2022-09-26T07:14:04.752Z,0.60
2022-09-26T07:16:33.065Z,0.70
2022-09-26T07:19:00.302Z,0.75
2022-09-26T07:21:27.517Z,0.65
2022-09-26T07:23:58.551Z,0.50
2022-09-26T07:26:25.824Z,0.88
2022-09-26T07:28:54.909Z,0.40
2022-09-26T07:31:23.710Z,0.90
2022-09-26T07:33:51.171Z,0.80
2022-09-26T07:36:18.512Z,0.50
2022-09-26T07:38:48.626Z,0.38
2022-09-26T07:41:15.971Z,0.60
2022-09-26T07:44:30.353Z,0.90
2022-09-26T07:46:49.779Z,0.68
2022-09-26T07:49:38.175Z,0.35
2022-09-26T07:52:05.448Z,0.60
2022-09-26T07:54:32.809Z,0.40
2022-09-26T07:57:00.124Z,0.40
2022-09-26T07:59:28.113Z,0.40
2022-09-26T08:01:55.739Z,0.40
2022-09-26T08:04:30.749Z,1.02
2022-09-26T08:07:00.356Z,0.35
2022-09-26T08:09:28.501Z,0.40
2022-09-26T08:11:56.257Z,0.40
2022-09-26T08:14:25.646Z,0.30
2022-09-26T08:16:55.683Z,0.50
2022-09-26T08:19:23.047Z,0.45
2022-09-26T08:21:50.324Z,0.40
2022-09-26T08:24:17.671Z,0.17
2022-09-26T08:26:45.007Z,0.20
2022-09-26T08:29:12.567Z,0.40
2022-09-26T08:31:40.002Z,0.20
2022-09-26T08:34:08.374Z,0.10
2022-09-26T08:36:38.480Z,0.10
2022-09-26T08:39:08.300Z,0.20
2022-09-26T08:41:35.505Z,0.10
2022-09-26T08:44:03.606Z,0.20
2022-09-26T08:47:05.088Z,0.20
2022-09-26T08:49:40.073Z,0.20
2022-09-26T08:52:13.366Z,0.17
2022-09-26T08:54:43.311Z,0.10
2022-09-26T08:57:30.783Z,0.20
2022-09-26T08:59:58.553Z,0.43
2022-09-26T09:02:37.967Z,0.30
2022-09-26T09:05:22.933Z,0.30
2022-09-26T09:07:51.667Z,0.25
2022-09-26T09:10:20.454Z,0.40
2022-09-26T09:12:51.158Z,0.57
2022-09-26T09:15:25.797Z,0.60
2022-09-26T09:18:04.459Z,0.28
2022-09-26T09:20:40.957Z,0.30
2022-09-26T09:23:25.849Z,0.95
2022-09-26T09:29:01.463Z,0.45
2022-09-26T09:31:35.950Z,0.60
2022-09-26T09:34:05.155Z,1.05
2022-09-26T09:36:40.768Z,0.70
2022-09-26T09:39:09.733Z,1.23
2022-09-26T09:41:41.003Z,0.68
2022-09-26T09:44:21.109Z,0.70
2022-09-26T09:46:51.538Z,0.90
2022-09-26T09:49:22.273Z,0.70
2022-09-26T09:52:01.316Z,0.82
2022-09-26T09:54:44.653Z,0.90
2022-09-26T09:57:20.169Z,0.80
2022-09-26T09:59:59.599Z,0.93
2022-09-26T10:02:34.355Z,1.33
2022-09-26T10:05:16.037Z,0.90
2022-09-26T10:07:45.096Z,1.35
2022-09-26T10:10:26.041Z,1.48
2022-09-26T10:12:54.413Z,1.00
2022-09-26T10:15:26.255Z,1.40
2022-09-26T10:18:22.926Z,1.63
2022-09-26T10:20:57.296Z,1.23
2022-09-26T10:23:24.589Z,1.33
2022-09-26T10:25:53.317Z,1.23
2022-09-26T10:28:52.550Z,1.40
2022-09-26T10:31:31.178Z,1.17
2022-09-26T10:34:03.255Z,1.55
2022-09-26T10:36:34.751Z,1.30
2022-09-26T10:39:23.884Z,1.38
2022-09-26T10:41:58.349Z,1.23
2022-09-26T10:44:36.665Z,1.00
2022-09-26T10:47:08.352Z,1.85
2022-09-26T10:49:39.988Z,1.63
2022-09-26T10:52:16.032Z,1.08
2022-09-26T10:54:55.328Z,1.20
2022-09-26T10:57:25.778Z,1.10
2022-09-26T10:59:54.183Z,1.33
2022-09-26T11:02:25.661Z,2.33
2022-09-26T11:05:18.006Z,1.95
2022-09-26T11:07:53.274Z,1.70
2022-09-26T11:10:28.619Z,2.08
2022-09-26T11:15:23.966Z,2.83
2022-09-26T11:17:52.501Z,1.92
2022-09-26T11:20:25.543Z,1.50
2022-09-26T11:23:02.925Z,2.33
2022-09-26T11:25:31.701Z,1.65
2022-09-26T11:28:06.027Z,1.92
2022-09-26T11:30:34.881Z,2.20
2022-09-26T11:33:12.232Z,1.50
2022-09-26T11:35:45.678Z,3.70
2022-09-26T11:38:18.810Z,1.70
2022-09-26T11:41:01.433Z,1.63
2022-09-26T11:43:41.178Z,1.80
2022-09-26T11:46:16.663Z,1.63
2022-09-26T11:48:53.107Z,1.73
2022-09-26T11:51:52.413Z,1.67
2022-09-26T11:54:38.623Z,1.55
2022-09-26T11:57:08.457Z,1.73
2022-09-26T11:59:36.300Z,1.63
2022-09-26T12:02:22.739Z,1.55
2022-09-26T12:04:52.827Z,1.20
2022-09-26T12:07:33.095Z,1.30
2022-09-26T12:10:08.989Z,2.00
2022-09-26T12:12:42.449Z,1.58
2022-09-26T12:15:34.311Z,1.65
2022-09-26T12:18:13.703Z,1.52
2022-09-26T12:21:01.158Z,1.40
2022-09-26T12:23:40.829Z,1.65
2022-09-26T12:26:08.907Z,1.35
2022-09-26T12:28:51.298Z,1.40
2022-09-26T12:31:25.122Z,1.45
2022-09-26T12:33:52.418Z,1.48
2022-09-26T12:36:28.578Z,1.20
2022-09-26T12:38:59.068Z,1.50
2022-09-26T12:41:44.188Z,1.30
2022-09-26T12:44:22.768Z,1.45
2022-09-26T12:46:59.187Z,1.65
2022-09-26T12:49:40.294Z,1.65
2022-09-26T12:52:27.139Z,1.50
2022-09-26T12:55:15.018Z,1.45
2022-09-26T12:57:52.844Z,1.20
2022-09-26T13:00:23.357Z,1.38
2022-09-26T13:03:16.312Z,1.25
2022-09-26T13:05:58.789Z,1.55
2022-09-26T13:08:40.890Z,1.33
2022-09-26T13:11:17.522Z,0.93
2022-09-26T13:13:54.159Z,1.48
2022-09-26T13:16:40.432Z,1.20
2022-09-26T13:19:21.726Z,2.88
2022-09-26T13:21:54.293Z,1.33
2022-09-26T13:24:22.965Z,0.57
2022-09-26T13:27:02.699Z,0.40
2022-09-26T13:29:33.701Z,0.40
2022-09-26T13:32:22.761Z,0.30
2022-09-26T13:34:52.351Z,0.25
2022-09-26T13:37:28.992Z,0.20
2022-09-26T13:40:16.368Z,0.30
2022-09-26T13:42:48.711Z,0.40
2022-09-26T13:45:19.045Z,0.43
2022-09-26T13:48:07.962Z,0.50
2022-09-26T13:50:42.198Z,0.50
2022-09-26T13:53:15.543Z,0.30
2022-09-26T13:55:46.619Z,0.45
2022-09-26T13:58:26.350Z,0.40
2022-09-26T14:00:53.793Z,0.35
2022-09-26T14:03:21.643Z,0.35
2022-09-26T14:05:53.034Z,0.43
2022-09-26T14:08:44.995Z,0.50
2022-09-26T14:11:24.540Z,0.50
2022-09-26T14:14:21.572Z,0.40
2022-09-26T14:16:51.254Z,0.82
2022-09-26T14:19:18.937Z,0.60
2022-09-26T14:22:00.618Z,0.52
2022-09-26T14:24:33.513Z,0.57
2022-09-26T14:27:07.037Z,0.80
2022-09-26T14:29:34.212Z,0.88
2022-09-26T14:32:10.475Z,0.60
2022-09-26T14:34:55.838Z,0.93
2022-09-26T14:37:26.195Z,1.17
2022-09-26T14:40:01.044Z,0.80
2022-09-26T14:42:31.881Z,0.95
2022-09-26T14:45:03.406Z,0.70
2022-09-26T14:47:38.550Z,0.80
2022-09-26T14:50:07.521Z,0.80
2022-09-26T14:52:35.415Z,0.60
2022-09-26T14:55:03.124Z,0.70
2022-09-26T14:57:32.630Z,0.77
2022-09-26T15:00:01.646Z,0.60
2022-09-26T15:02:29.065Z,0.40
2022-09-26T15:05:11.732Z,0.85
2022-09-26T15:07:44.210Z,0.63
2022-09-26T15:10:14.452Z,0.70
2022-09-26T15:12:44.193Z,0.50
2022-09-26T15:15:14.548Z,0.75
2022-09-26T15:17:44.938Z,1.20
2022-09-26T15:20:15.795Z,0.60
2022-09-26T15:22:43.197Z,0.50
2022-09-26T15:25:25.149Z,0.63
2022-09-26T15:27:56.376Z,0.40
2022-09-26T15:30:27.090Z,0.40
2022-09-26T15:32:58.141Z,0.60
2022-09-26T15:35:27.209Z,0.50
2022-09-26T15:37:59.185Z,0.52
2022-09-26T15:40:28.399Z,0.77
2022-09-26T15:43:06.570Z,0.65
2022-09-26T15:45:41.919Z,1.15
2022-09-26T15:48:35.524Z,0.60
2022-09-26T15:51:07.429Z,0.70
2022-09-26T15:53:39.594Z,0.52
2022-09-26T15:56:27.057Z,0.77
2022-09-26T15:58:54.275Z,0.80
2022-09-26T16:01:23.504Z,0.77
2022-09-26T16:04:13.757Z,0.60
2022-09-26T16:06:42.230Z,0.40
2022-09-26T16:09:16.906Z,0.47
2022-09-26T16:11:47.443Z,0.43
2022-09-26T16:14:26.750Z,0.30
2022-09-26T16:16:55.567Z,0.40
2022-09-26T16:19:30.831Z,0.55
2022-09-26T16:21:58.592Z,0.68
2022-09-26T16:24:31.111Z,0.60
2022-09-26T16:26:58.658Z,0.50
2022-09-26T16:29:36.842Z,0.55
2022-09-26T16:32:05.134Z,0.50
2022-09-26T16:34:32.523Z,0.47
2022-09-26T16:36:59.971Z,0.70
2022-09-26T16:39:28.981Z,0.57
2022-09-26T16:42:02.749Z,0.43
2022-09-26T16:44:35.990Z,0.60
2022-09-26T16:47:05.727Z,0.40
2022-09-26T16:49:39.885Z,0.20
2022-09-26T16:52:30.454Z,0.45
2022-09-26T16:54:59.289Z,0.43
2022-09-26T16:57:30.910Z,0.40
2022-09-26T17:00:21.334Z,0.60
2022-09-26T17:02:48.717Z,0.50
2022-09-26T17:05:18.503Z,0.40
2022-09-26T17:07:46.612Z,0.50
2022-09-26T17:10:14.029Z,0.50
2022-09-26T17:12:41.391Z,0.50
2022-09-26T17:15:09.901Z,0.60
2022-09-26T17:17:38.290Z,0.77
2022-09-26T17:20:05.764Z,0.57
2022-09-26T17:22:33.188Z,0.63
2022-09-26T17:25:00.584Z,0.50
2022-09-26T17:27:30.597Z,0.60
2022-09-26T17:30:02.821Z,0.70
2022-09-26T17:32:32.832Z,0.70
2022-09-26T17:35:05.585Z,0.73
2022-09-26T17:39:59.994Z,0.40
2022-09-26T17:42:27.510Z,0.50
2022-09-26T17:44:54.729Z,0.85
2022-09-26T17:47:23.077Z,0.50
2022-09-26T17:49:57.236Z,1.00
2022-09-26T17:52:32.021Z,0.43
2022-09-26T17:55:01.374Z,0.43
2022-09-26T17:57:36.168Z,0.60
2022-09-26T18:00:11.118Z,0.60
2022-09-26T18:02:40.584Z,1.15
2022-09-26T18:05:11.490Z,0.40
2022-09-26T18:07:40.923Z,0.57
2022-09-26T18:10:15.464Z,0.40
2022-09-26T18:12:42.706Z,0.38
2022-09-26T18:15:12.680Z,0.82
2022-09-26T18:17:39.904Z,0.63
2022-09-26T18:20:07.427Z,0.40
2022-09-26T18:22:34.711Z,0.30
2022-09-26T18:25:04.852Z,0.30
2022-09-26T18:27:36.490Z,0.35
2022-09-26T18:30:04.682Z,0.60
2022-09-26T18:32:33.315Z,0.82
2022-09-26T18:35:00.949Z,0.40
2022-09-26T18:37:29.155Z,0.32
2022-09-26T18:40:00.162Z,0.40
2022-09-26T18:42:31.678Z,0.60
2022-09-26T18:45:01.592Z,0.52
2022-09-26T18:47:28.789Z,0.65
2022-09-26T18:49:56.016Z,0.57
2022-09-26T18:52:23.326Z,0.63
2022-09-26T18:55:10.533Z,0.50
2022-09-26T18:57:56.541Z,0.50
2022-09-26T19:00:24.660Z,0.50
2022-09-26T19:02:52.039Z,1.38
2022-09-26T19:05:19.418Z,0.63
2022-09-26T19:07:46.717Z,0.50
2022-09-26T19:10:15.710Z,0.45
2022-09-26T19:12:43.425Z,0.52
2022-09-26T19:15:14.524Z,0.50
2022-09-26T19:17:41.775Z,0.85
2022-09-26T19:20:09.021Z,0.85
2022-09-26T19:22:36.592Z,0.77
2022-09-26T19:25:04.021Z,0.70
2022-09-26T19:27:33.260Z,0.95
2022-09-26T19:30:00.447Z,0.40
2022-09-26T19:32:41.585Z,0.60
2022-09-26T19:35:16.832Z,0.43
2022-09-26T19:37:44.265Z,0.47
2022-09-26T19:40:15.078Z,0.93
2022-09-26T19:42:42.397Z,0.93
2022-09-26T19:45:10.590Z,0.47
2022-09-26T19:47:39.323Z,0.50
2022-09-26T19:50:07.089Z,0.60
2022-09-26T19:52:34.290Z,0.50
2022-09-26T19:55:01.497Z,0.60
2022-09-26T19:57:28.802Z,0.70
2022-09-26T19:59:55.981Z,0.50
2022-09-26T20:02:31.442Z,0.40
2022-09-26T20:04:58.906Z,0.50
2022-09-26T20:07:26.216Z,0.60
2022-09-26T20:09:53.433Z,0.50
2022-09-26T20:12:20.618Z,0.43
2022-09-26T20:14:47.885Z,1.95
2022-09-26T20:17:24.224Z,0.52
2022-09-26T20:19:57.778Z,0.50
2022-09-26T20:22:26.201Z,0.40
2022-09-26T20:24:57.644Z,0.60
2022-09-26T20:27:29.078Z,0.40
2022-09-26T20:30:15.622Z,0.40
2022-09-26T20:32:42.899Z,0.50
2022-09-26T20:35:16.377Z,0.47
2022-09-26T20:37:44.800Z,0.30
2022-09-26T20:40:19.575Z,0.30
2022-09-26T20:42:49.434Z,0.40
2022-09-26T20:45:18.686Z,0.30
2022-09-26T20:47:45.933Z,0.40
2022-09-26T20:50:15.430Z,0.40
2022-09-26T20:52:42.761Z,0.30
2022-09-26T20:55:15.637Z,0.70
2022-09-26T20:57:43.166Z,0.70
2022-09-26T21:00:17.964Z,0.20
2022-09-26T21:02:46.018Z,0.30
2022-09-26T21:05:17.069Z,0.40
2022-09-26T21:07:44.452Z,0.22
2022-09-26T21:10:25.856Z,0.30
2022-09-26T21:12:53.225Z,0.30
2022-09-26T21:15:21.331Z,0.20
2022-09-26T21:17:49.156Z,0.38
2022-09-26T21:20:23.386Z,0.60
2022-09-26T21:22:50.779Z,0.30
2022-09-26T21:25:19.048Z,0.50
2022-09-26T21:27:47.013Z,0.40
2022-09-26T21:30:17.642Z,0.50
2022-09-26T21:32:46.274Z,0.30
2022-09-26T21:35:14.828Z,0.30
2022-09-26T21:37:47.190Z,0.30
2022-09-26T21:40:14.560Z,0.30
2022-09-26T21:42:44.151Z,0.25
2022-09-26T21:45:12.127Z,0.20
2022-09-26T21:47:39.341Z,0.30
2022-09-26T21:50:08.401Z,0.10
2022-09-26T21:52:40.533Z,0.30
2022-09-26T21:55:13.365Z,0.47
2022-09-26T22:00:11.022Z,0.35
2022-09-26T22:02:39.178Z,0.20
2022-09-26T22:05:06.621Z,0.28
2022-09-26T22:07:33.909Z,0.15
2022-09-26T22:10:01.099Z,0.32
2022-09-26T22:12:28.383Z,0.40
2022-09-26T22:14:55.729Z,0.28
2022-09-26T22:17:23.313Z,0.35
2022-09-26T22:19:51.887Z,0.75
2022-09-26T22:22:19.114Z,0.28
2022-09-26T22:24:46.375Z,0.20
2022-09-26T22:27:13.676Z,0.15
2022-09-26T22:29:40.966Z,0.85
2022-09-26T22:32:08.976Z,0.28
2022-09-26T22:34:36.280Z,0.30
2022-09-26T22:37:03.616Z,0.22
2022-09-26T22:39:30.852Z,0.20
2022-09-26T22:41:58.578Z,0.22
2022-09-26T22:44:25.961Z,0.32
2022-09-26T22:46:53.149Z,0.20
2022-09-26T22:49:20.689Z,0.20
2022-09-26T22:51:47.920Z,0.13
2022-09-26T22:54:15.200Z,0.10
2022-09-26T22:56:42.601Z,0.20
2022-09-26T22:59:10.513Z,0.30
2022-09-26T23:01:37.863Z,0.10
2022-09-26T23:04:05.409Z,0.47
2022-09-26T23:06:32.798Z,0.10
2022-09-26T23:09:00.049Z,0.10
2022-09-26T23:11:27.965Z,0.10
2022-09-26T23:13:55.256Z,0.10
2022-09-26T23:16:23.791Z,0.10
2022-09-26T23:18:51.722Z,0.20
2022-09-26T23:21:20.426Z,0.10
2022-09-26T23:23:48.990Z,0.35
2022-09-26T23:26:17.069Z,0.10
2022-09-26T23:28:44.333Z,0.10
2022-09-26T23:31:11.880Z,0.10
2022-09-26T23:33:39.645Z,0.20
2022-09-26T23:36:07.519Z,0.30
2022-09-26T23:38:35.580Z,0.85
2022-09-26T23:41:02.965Z,0.30
2022-09-26T23:43:30.414Z,0.25
2022-09-26T23:45:57.712Z,0.40
2022-09-26T23:48:25.001Z,0.47
2022-09-26T23:50:52.196Z,0.28
2022-09-26T23:53:19.437Z,0.40
2022-09-26T23:55:46.667Z,0.73
2022-09-26T23:58:14.263Z,0.35
